Accueil
METAR-TAF:

METAR-TAF

Aéroports :

Vadodara, Inde

latitude: 22-19-46N, longitude: 73-13-10E, altitude: 39 m

Observation

Le bulletin a été fait il y a 6 heures et 10 minutes, à 16:30 UTC
Vent 5 kt de nord
Température 21°C
Humidité 69%
Pression 1017 hPa
Visibilité: 6000 m

METAR: VABO 221630Z 01005KT 6000 NSC 21/15 Q1017 NOSIG

Heure: 04:10 (22:40 UTC)

Prévision

Le bulletin a été fait il y a 2 heures et 40 minutes, à 20:00 UTC
Prévision valable du 22 à 21 UTC au 23 à 06 UTC
Vent 5 kt de nord/nord-est
Visibilité: 6000 m
Evoluant progressivement
du 23 à 01 UTC au 23 à 03 UTC
Visibilité: 3000 m
brume sèche
Evoluant progressivement
du 23 à 04 UTC au 23 à 06 UTC
Vent 6 kt de est/nord-est
Visibilité: 6000 m

TAF: VABO 222000Z 2221/2306 03005KT 6000 NSC BECMG 2301/2303 3000 HZ BECMG 2304/2306 06006KT 6000

Observations et prévisions météorologiques de plus de 4000 aéroports (messages METAR et TAF).

Les stations disponibles sont représentées par des disques jaunes et rouges sur la carte.

Passer la souris dessus pour voir le nom de la station.

Cliquer dessus pour voir les observations et prévisions météorologiques.

Pour changer de carte: cliquez sur les boutons verts avec une croix noire pour zoomer, sur le bouton vert avec un tiret pour effectuer un zoom arrière, ou sur les flèches vertes pour les cartes adjacentes.


METAR-TAF: